Inukjuak, Canada
Current Conditions -  °F | °C
As of 12:00 AM on Monday 20 Oct 2014 (Local Time) from CYPH Reporting Station
Scattered Clouds Scattered Clouds  
Wind Chill: 17°   Ceiling: Unl
Heat Index: 27°   Visibility: 9mi
Dew Point: 23°   Wind: 10mph
Humidity: 86%   Direction: 100°E
Pressure: 30.02"   Gusts: NA
Location:  58.46°N, 78.12°W
Report Text: CYPH 200400Z AUTO 10009KT 9SM SCT017 M03/M05 A3002 RMK SLP167
Loading
Personal Weather Stations






























Interactive Weather Map
Tropical Storm Tracking
New forecast layout! Learn more

10-Day Weather Forecast

Advertisements
Track Severe Weather on mobile